CheckWX is a tool to help pilots better visualize weather data.  It is not intended as a substitute for an official pre-flight weather briefing.

02:34:10 UTC

KCDR METAR
Chadron Municipal Airport
Chadron, Nebraska, USA
Current

41 mins ago

KCDR 180153Z AUTO 02006KT 6SM HZ OVC029 M14/M17 A3021 RMK AO2 SNE50 SLP311 P0000 T11441172
Observed
Feb-18 @ 01:53 UTC
Wind
  • 020° at 6 KTS
Visibility
6 SM
Flight Rules
MVFR
Conditions
Haze
Cloud Levels
  • Overcast at 2,900' AGL
Temperature
-14°C / 7°F
Dewpoint
-17°C / 1°F
Humidity
78%
Altimeter
30.21" Hg
Pressure
1031.1 hPa
Current Rain
0.01"
Previous

50 mins ago

KCDR 180144Z AUTO 02008KT 5SM -SN OVC029 M14/M17 A3021 RMK AO2 P0000 T11441172
Observed
Feb-18 @ 01:44 UTC
Wind
  • 020° at 8 KTS
Visibility
5 SM
Flight Rules
MVFR
Conditions
Light Snow
Cloud Levels
  • Overcast at 2,900' AGL
Temperature
-14°C / 7°F
Dewpoint
-17°C / 1°F
Humidity
78%
Altimeter
30.21" Hg
Pressure
1023.02 hPa
Current Rain
0.01"
Previous

2 hours ago

KCDR 180053Z AUTO 01007KT 4SM -SN OVC033 M14/M17 A3019 RMK AO2 SLP300 P0000 T11391172
Observed
Feb-18 @ 00:53 UTC
Wind
  • 010° at 7 KTS
Visibility
4 SM
Flight Rules
MVFR
Conditions
Light Snow
Cloud Levels
  • Overcast at 3,300' AGL
Temperature
-14°C / 7°F
Dewpoint
-17°C / 1°F
Humidity
78%
Altimeter
30.19" Hg
Pressure
1030 hPa
Current Rain
0.01"